createdAt,value
2017-09-22T00:00:13.623Z,0
2017-09-22T00:01:13.281Z,0
2017-09-22T00:02:13.263Z,0
2017-09-22T00:03:13.568Z,0
2017-09-22T00:04:13.245Z,0
2017-09-22T00:05:13.225Z,0
2017-09-22T00:06:13.211Z,0
2017-09-22T00:07:13.186Z,0
2017-09-22T00:08:13.825Z,0
2017-09-22T00:09:13.484Z,0
2017-09-22T00:10:13.475Z,0
2017-09-22T00:11:12.809Z,0
2017-09-22T00:12:13.474Z,0
2017-09-22T00:13:12.776Z,0
2017-09-22T00:14:13.797Z,0
2017-09-22T00:15:13.401Z,0
2017-09-22T00:16:13.371Z,0
2017-09-22T00:17:13.363Z,0
2017-09-22T00:18:12.750Z,0
2017-09-22T00:19:13.016Z,0
2017-09-22T00:20:12.670Z,0
2017-09-22T00:21:12.657Z,0
2017-09-22T00:22:12.642Z,0
2017-09-22T00:23:13.589Z,0
2017-09-22T00:24:13.264Z,0
2017-09-22T00:25:13.260Z,0
2017-09-22T00:26:13.552Z,0
2017-09-22T00:27:12.893Z,0
2017-09-22T00:28:13.217Z,0
2017-09-22T00:29:13.181Z,0
2017-09-22T00:30:13.495Z,0
2017-09-22T00:31:12.831Z,0
2017-09-22T00:32:13.133Z,0
2017-09-22T00:33:13.441Z,0
2017-09-22T00:34:12.468Z,0
2017-09-22T00:35:12.767Z,0
2017-09-22T00:36:12.755Z,0
2017-09-22T00:37:12.430Z,0
2017-09-22T00:38:12.729Z,0
2017-09-22T00:39:12.712Z,0
2017-09-22T00:40:12.696Z,0
2017-09-22T00:41:13.332Z,0
2017-09-22T00:42:12.989Z,0
2017-09-22T00:43:12.650Z,0
2017-09-22T00:44:12.954Z,0
2017-09-22T00:45:11.987Z,0
2017-09-22T00:46:12.608Z,0
2017-09-22T00:47:12.922Z,0
2017-09-22T00:48:12.577Z,0
2017-09-22T00:49:12.884Z,0
2017-09-22T00:50:13.188Z,0
2017-09-22T00:51:12.213Z,0
2017-09-22T00:52:12.516Z,0
2017-09-22T00:53:12.827Z,0
2017-09-22T00:54:11.845Z,0
2017-09-22T00:55:12.472Z,0
2017-09-22T00:56:12.459Z,0
2017-09-22T00:57:12.111Z,0
2017-09-22T00:58:12.105Z,0
2017-09-22T00:59:12.412Z,0
2017-09-22T01:00:12.730Z,0
2017-09-22T01:01:12.059Z,0
2017-09-22T01:02:12.366Z,0
2017-09-22T01:03:12.080Z,0
2017-09-22T01:04:12.049Z,0
2017-09-22T01:05:12.992Z,0
2017-09-22T01:06:12.624Z,0
2017-09-22T01:07:12.607Z,0
2017-09-22T01:08:12.919Z,0
2017-09-22T01:09:11.942Z,0
2017-09-22T01:10:12.254Z,0
2017-09-22T01:11:12.225Z,0
2017-09-22T01:12:11.893Z,0
2017-09-22T01:13:12.518Z,0
2017-09-22T01:14:12.186Z,0
2017-09-22T01:15:11.892Z,0
2017-09-22T01:16:12.478Z,0
2017-09-22T01:17:12.148Z,0
2017-09-22T01:18:12.761Z,0
2017-09-22T01:19:12.119Z,0
2017-09-22T01:20:11.771Z,0
2017-09-22T01:21:12.725Z,0
2017-09-22T01:22:12.711Z,0
2017-09-22T01:23:11.401Z,0
2017-09-22T01:24:12.035Z,0
2017-09-22T01:25:12.340Z,0
2017-09-22T01:26:11.683Z,0
2017-09-22T01:27:11.664Z,0
2017-09-22T01:28:11.338Z,0
2017-09-22T01:29:11.960Z,0
2017-09-22T01:30:11.948Z,0
2017-09-22T01:31:12.250Z,0
2017-09-22T01:32:11.910Z,0
2017-09-22T01:33:12.219Z,0
2017-09-22T01:34:12.242Z,0
2017-09-22T01:35:12.185Z,0
2017-09-22T01:36:11.857Z,0
2017-09-22T01:37:11.840Z,0
2017-09-22T01:38:11.513Z,0
2017-09-22T01:39:11.183Z,0
2017-09-22T01:40:11.836Z,0
2017-09-22T01:41:12.092Z,0
2017-09-22T01:42:11.766Z,0
2017-09-22T01:43:11.094Z,0
2017-09-22T01:44:12.053Z,0
2017-09-22T01:45:11.704Z,0
2017-09-22T01:46:11.425Z,0
2017-09-22T01:47:11.673Z,0
2017-09-22T01:48:12.040Z,0
2017-09-22T01:49:11.331Z,0
2017-09-22T01:50:11.960Z,0
2017-09-22T01:51:10.975Z,0
2017-09-22T01:52:12.127Z,0
2017-09-22T01:53:11.907Z,0
2017-09-22T01:54:11.250Z,0
2017-09-22T01:55:11.560Z,0
2017-09-22T01:56:11.864Z,0
2017-09-22T01:57:11.846Z,0
2017-09-22T01:58:11.513Z,0
2017-09-22T01:59:11.553Z,0
2017-09-22T02:00:11.481Z,0
2017-09-22T02:01:11.789Z,0
2017-09-22T02:02:11.457Z,0
2017-09-22T02:03:11.753Z,0
2017-09-22T02:04:11.103Z,0
2017-09-22T02:05:12.043Z,0
2017-09-22T02:06:11.069Z,0
2017-09-22T02:07:11.703Z,0
2017-09-22T02:08:11.359Z,0
2017-09-22T02:09:11.015Z,0
2017-09-22T02:10:11.651Z,0
2017-09-22T02:11:11.320Z,0
2017-09-22T02:12:11.624Z,0
2017-09-22T02:13:11.289Z,0
2017-09-22T02:14:10.944Z,0
2017-09-22T02:15:11.958Z,0
2017-09-22T02:16:11.236Z,0
2017-09-22T02:17:11.251Z,0
2017-09-22T02:18:10.882Z,0
2017-09-22T02:19:11.189Z,0
2017-09-22T02:20:11.173Z,0
2017-09-22T02:21:10.831Z,0
2017-09-22T02:22:11.136Z,0
2017-09-22T02:23:10.808Z,0
2017-09-22T02:24:10.463Z,0
2017-09-22T02:25:11.125Z,0
2017-09-22T02:26:10.756Z,0
2017-09-22T02:27:10.738Z,0
2017-09-22T02:28:11.087Z,0
2017-09-22T02:29:11.034Z,0
2017-09-22T02:30:10.691Z,0
2017-09-22T02:31:10.999Z,0
2017-09-22T02:32:10.991Z,0
2017-09-22T02:33:10.329Z,0
2017-09-22T02:34:10.683Z,0
2017-09-22T02:35:10.937Z,0
2017-09-22T02:36:10.612Z,0
2017-09-22T02:37:10.912Z,0
2017-09-22T02:38:10.885Z,0
2017-09-22T02:39:10.876Z,0
2017-09-22T02:40:10.221Z,0
2017-09-22T02:41:11.176Z,0
2017-09-22T02:42:10.832Z,0
2017-09-22T02:43:10.819Z,0
2017-09-22T02:44:10.792Z,0
2017-09-22T02:45:11.101Z,0
2017-09-22T02:46:11.444Z,0
2017-09-22T02:47:10.763Z,0
2017-09-22T02:48:10.734Z,0
2017-09-22T02:49:11.096Z,0
2017-09-22T02:50:10.059Z,0
2017-09-22T02:51:11.340Z,0
2017-09-22T02:52:10.677Z,0
2017-09-22T02:53:10.982Z,0
2017-09-22T02:54:09.995Z,0
2017-09-22T02:55:11.267Z,0
2017-09-22T02:56:10.607Z,0
2017-09-22T02:57:10.924Z,0
2017-09-22T02:58:10.575Z,0
2017-09-22T02:59:10.877Z,0
2017-09-22T03:00:10.582Z,0
2017-09-22T03:01:10.538Z,0
2017-09-22T03:02:10.844Z,0
2017-09-22T03:03:10.517Z,0
2017-09-22T03:04:10.162Z,0
2017-09-22T03:05:10.140Z,0
2017-09-22T03:06:10.140Z,0
2017-09-22T03:07:10.437Z,0
2017-09-22T03:08:10.425Z,0
2017-09-22T03:09:10.723Z,0
2017-09-22T03:10:11.032Z,0
2017-09-22T03:11:10.050Z,0
2017-09-22T03:12:10.355Z,0
2017-09-22T03:13:10.357Z,0
2017-09-22T03:14:10.645Z,0
2017-09-22T03:15:10.031Z,0
2017-09-22T03:16:10.297Z,0
2017-09-22T03:17:10.277Z,0
2017-09-22T03:18:10.578Z,0
2017-09-22T03:19:09.594Z,0
2017-09-22T03:20:10.226Z,0
2017-09-22T03:21:10.533Z,0
2017-09-22T03:22:10.196Z,0
2017-09-22T03:23:09.865Z,0
2017-09-22T03:24:10.170Z,0
2017-09-22T03:25:09.825Z,0
2017-09-22T03:26:10.131Z,0
2017-09-22T03:27:09.804Z,0
2017-09-22T03:28:10.105Z,0
2017-09-22T03:29:10.414Z,0
2017-09-22T03:30:10.401Z,0
2017-09-22T03:31:10.075Z,0
2017-09-22T03:32:10.037Z,0
2017-09-22T03:33:10.357Z,0
2017-09-22T03:34:10.013Z,0
2017-09-22T03:35:09.664Z,0
2017-09-22T03:36:09.701Z,0
2017-09-22T03:37:09.960Z,0
2017-09-22T03:38:09.622Z,0
2017-09-22T03:39:09.610Z,0
2017-09-22T03:40:09.591Z,0
2017-09-22T03:41:10.208Z,0
2017-09-22T03:42:09.874Z,0
2017-09-22T03:43:09.902Z,0
2017-09-22T03:44:09.896Z,0
2017-09-22T03:45:09.508Z,0
2017-09-22T03:46:10.451Z,0
2017-09-22T03:47:09.797Z,0
2017-09-22T03:48:10.106Z,0
2017-09-22T03:49:09.444Z,0
2017-09-22T03:50:09.750Z,0
2017-09-22T03:51:09.744Z,0
2017-09-22T03:52:09.597Z,0
2017-09-22T03:53:10.035Z,0
2017-09-22T03:54:09.690Z,0
2017-09-22T03:55:09.676Z,0
2017-09-22T03:56:10.290Z,0
2017-09-22T03:57:09.639Z,0
2017-09-22T03:58:09.312Z,0
2017-09-22T03:59:09.615Z,0
2017-09-22T04:00:09.963Z,0
2017-09-22T04:01:09.906Z,0
2017-09-22T04:02:09.233Z,0
2017-09-22T04:03:09.559Z,0
2017-09-22T04:04:09.526Z,0
2017-09-22T04:05:09.506Z,0
2017-09-22T04:06:09.817Z,0
2017-09-22T04:07:09.472Z,0
2017-09-22T04:08:09.462Z,0
2017-09-22T04:09:09.124Z,0
2017-09-22T04:10:09.750Z,0
2017-09-22T04:11:09.086Z,0
2017-09-22T04:12:09.717Z,0
2017-09-22T04:13:09.715Z,0
2017-09-22T04:14:09.368Z,0
2017-09-22T04:15:09.350Z,0
2017-09-22T04:16:09.327Z,0
2017-09-22T04:17:09.637Z,0
2017-09-22T04:18:09.302Z,0
2017-09-22T04:19:09.290Z,0
2017-09-22T04:20:09.259Z,0
2017-09-22T04:21:09.259Z,0
2017-09-22T04:22:09.233Z,0
2017-09-22T04:23:09.217Z,0
2017-09-22T04:24:09.844Z,0
2017-09-22T04:25:09.506Z,0
2017-09-22T04:26:09.487Z,0
2017-09-22T04:27:08.842Z,0
2017-09-22T04:28:08.811Z,0
2017-09-22T04:29:09.441Z,0
2017-09-22T04:30:09.107Z,0
2017-09-22T04:31:09.084Z,0
2017-09-22T04:32:08.743Z,0
2017-09-22T04:33:09.108Z,0
2017-09-22T04:34:09.040Z,0
2017-09-22T04:35:09.021Z,0
2017-09-22T04:36:09.003Z,0
2017-09-22T04:37:08.990Z,0
2017-09-22T04:38:08.977Z,0
2017-09-22T04:39:09.595Z,0
2017-09-22T04:40:09.260Z,0
2017-09-22T04:41:09.257Z,0
2017-09-22T04:42:09.229Z,0
2017-09-22T04:43:09.215Z,0
2017-09-22T04:44:08.886Z,0
2017-09-22T04:45:09.518Z,0
2017-09-22T04:46:09.169Z,0
2017-09-22T04:47:09.157Z,0
2017-09-22T04:48:08.487Z,0
2017-09-22T04:49:08.474Z,0
2017-09-22T04:50:08.779Z,0
2017-09-22T04:51:08.748Z,0
2017-09-22T04:52:08.423Z,0
2017-09-22T04:53:08.754Z,0
2017-09-22T04:54:09.036Z,0
2017-09-22T04:55:08.700Z,0
2017-09-22T04:56:08.372Z,0
2017-09-22T04:57:08.668Z,0
2017-09-22T04:58:08.641Z,0
2017-09-22T04:59:08.958Z,0
2017-09-22T05:00:08.290Z,0
2017-09-22T05:01:08.603Z,0
2017-09-22T05:02:08.905Z,0
2017-09-22T05:03:08.892Z,0
2017-09-22T05:04:08.561Z,0
2017-09-22T05:05:08.213Z,0
2017-09-22T05:06:09.162Z,0
2017-09-22T05:07:08.819Z,0
2017-09-22T05:08:08.823Z,0
2017-09-22T05:09:08.469Z,0
2017-09-22T05:10:08.451Z,0
2017-09-22T05:11:08.753Z,0
2017-09-22T05:12:08.416Z,0
2017-09-22T05:13:08.411Z,0
2017-09-22T05:14:08.704Z,0
2017-09-22T05:15:08.369Z,0
2017-09-22T05:16:07.735Z,0
2017-09-22T05:17:08.660Z,0
2017-09-22T05:18:08.635Z,0
2017-09-22T05:19:08.940Z,5
2017-09-22T05:20:08.615Z,5
2017-09-22T05:21:08.921Z,5
2017-09-22T05:22:07.928Z,5
2017-09-22T05:23:08.578Z,5
2017-09-22T05:24:08.549Z,5
2017-09-22T05:25:08.524Z,5
2017-09-22T05:26:08.192Z,5
2017-09-22T05:27:08.171Z,5
2017-09-22T05:28:07.830Z,10
2017-09-22T05:29:08.784Z,10
2017-09-22T05:30:08.445Z,10
2017-09-22T05:31:08.443Z,10
2017-09-22T05:32:08.727Z,10
2017-09-22T05:33:08.070Z,10
2017-09-22T05:34:08.695Z,10
2017-09-22T05:35:08.356Z,15
2017-09-22T05:36:08.341Z,15
2017-09-22T05:37:08.006Z,15
2017-09-22T05:38:07.677Z,15
2017-09-22T05:39:08.606Z,15
2017-09-22T05:40:07.959Z,15
2017-09-22T05:41:07.935Z,20
2017-09-22T05:42:07.601Z,20
2017-09-22T05:43:07.593Z,20
2017-09-22T05:44:07.896Z,20
2017-09-22T05:45:08.190Z,20
2017-09-22T05:46:08.174Z,20
2017-09-22T05:47:07.857Z,20
2017-09-22T05:48:08.153Z,25
2017-09-22T05:49:07.157Z,25
2017-09-22T05:50:07.791Z,25
2017-09-22T05:51:08.135Z,25
2017-09-22T05:52:08.690Z,25
2017-09-22T05:53:07.415Z,25
2017-09-22T05:54:08.052Z,25
2017-09-22T05:55:07.733Z,25
2017-09-22T05:56:08.015Z,25
2017-09-22T05:57:07.688Z,30
2017-09-22T05:58:07.978Z,30
2017-09-22T05:59:07.652Z,30
2017-09-22T06:00:07.309Z,30
2017-09-22T06:01:07.620Z,30
2017-09-22T06:02:07.910Z,30
2017-09-22T06:03:07.574Z,35
2017-09-22T06:04:07.889Z,35
2017-09-22T06:05:07.884Z,35
2017-09-22T06:06:07.523Z,35
2017-09-22T06:07:07.843Z,35
2017-09-22T06:08:07.505Z,35
2017-09-22T06:09:07.807Z,40
2017-09-22T06:10:07.467Z,40
2017-09-22T06:11:07.781Z,40
2017-09-22T06:12:07.108Z,40
2017-09-22T06:13:07.745Z,40
2017-09-22T06:14:07.449Z,45
2017-09-22T06:15:07.712Z,45
2017-09-22T06:16:07.695Z,45
2017-09-22T06:17:07.677Z,45
2017-09-22T06:18:07.654Z,45
2017-09-22T06:19:07.319Z,45
2017-09-22T06:20:07.621Z,45
2017-09-22T06:21:06.969Z,45
2017-09-22T06:22:07.270Z,45
2017-09-22T06:23:06.612Z,45
2017-09-22T06:24:06.918Z,45
2017-09-22T06:25:06.902Z,50
2017-09-22T06:26:07.524Z,50
2017-09-22T06:27:06.871Z,50
2017-09-22T06:28:07.174Z,50
2017-09-22T06:29:07.162Z,50
2017-09-22T06:30:07.492Z,55
2017-09-22T06:31:07.448Z,55
2017-09-22T06:32:07.448Z,55
2017-09-22T06:33:07.744Z,55
2017-09-22T06:34:07.408Z,55
2017-09-22T06:35:07.384Z,55
2017-09-22T06:36:06.728Z,55
2017-09-22T06:37:06.713Z,55
2017-09-22T06:38:07.036Z,55
2017-09-22T06:39:07.006Z,55
2017-09-22T06:40:06.982Z,55
2017-09-22T06:41:06.965Z,55
2017-09-22T06:42:07.275Z,55
2017-09-22T06:43:06.936Z,55
2017-09-22T06:44:07.558Z,55
2017-09-22T06:45:06.907Z,60
2017-09-22T06:46:06.893Z,60
2017-09-22T06:47:06.867Z,60
2017-09-22T06:48:06.857Z,60
2017-09-22T06:49:06.843Z,60
2017-09-22T06:50:07.475Z,60
2017-09-22T06:51:07.128Z,60
2017-09-22T06:52:06.470Z,60
2017-09-22T06:53:07.421Z,65
2017-09-22T06:54:07.403Z,65
2017-09-22T06:55:07.390Z,65
2017-09-22T06:56:06.418Z,65
2017-09-22T06:57:07.364Z,70
2017-09-22T06:58:06.059Z,70
2017-09-22T06:59:07.020Z,70
2017-09-22T07:00:07.026Z,70
2017-09-22T07:01:06.975Z,70
2017-09-22T07:02:06.971Z,75
2017-09-22T07:03:06.319Z,75
2017-09-22T07:04:07.264Z,80
2017-09-22T07:05:06.929Z,75
2017-09-22T07:06:06.900Z,80
2017-09-22T07:07:06.564Z,80
2017-09-22T07:08:06.548Z,85
2017-09-22T07:09:06.530Z,85
2017-09-22T07:10:06.516Z,85
2017-09-22T07:11:06.173Z,85
2017-09-22T07:12:06.172Z,80
2017-09-22T07:13:06.796Z,85
2017-09-22T07:14:06.451Z,85
2017-09-22T07:15:06.826Z,90
2017-09-22T07:16:06.748Z,90
2017-09-22T07:17:06.088Z,90
2017-09-22T07:18:07.058Z,90
2017-09-22T07:19:06.062Z,95
2017-09-22T07:20:07.014Z,95
2017-09-22T07:21:06.353Z,95
2017-09-22T07:22:06.664Z,95
2017-09-22T07:23:06.319Z,95
2017-09-22T07:24:06.627Z,95
2017-09-22T07:25:05.649Z,95
2017-09-22T07:26:06.593Z,95
2017-09-22T07:27:06.251Z,95
2017-09-22T07:28:05.980Z,95
2017-09-22T07:29:05.907Z,100
2017-09-22T07:30:05.890Z,105
2017-09-22T07:31:06.518Z,110
2017-09-22T07:32:06.832Z,110
2017-09-22T07:33:06.487Z,110
2017-09-22T07:34:06.149Z,110
2017-09-22T07:35:06.469Z,110
2017-09-22T07:36:06.765Z,110
2017-09-22T07:37:06.458Z,110
2017-09-22T07:38:06.436Z,110
2017-09-22T07:39:06.096Z,115
2017-09-22T07:40:06.068Z,120
2017-09-22T07:41:05.738Z,125
2017-09-22T07:42:06.044Z,125
2017-09-22T07:43:06.399Z,125
2017-09-22T07:44:05.692Z,130
2017-09-22T07:45:06.316Z,135
2017-09-22T07:46:05.993Z,135
2017-09-22T07:47:05.645Z,135
2017-09-22T07:48:06.288Z,135
2017-09-22T07:49:05.939Z,135
2017-09-22T07:50:05.605Z,140
2017-09-22T07:51:05.905Z,145
2017-09-22T07:52:05.895Z,150
2017-09-22T07:53:05.885Z,150
2017-09-22T07:54:05.552Z,150
2017-09-22T07:55:06.176Z,155
2017-09-22T07:56:05.837Z,155
2017-09-22T07:57:06.138Z,155
2017-09-22T07:58:05.806Z,155
2017-09-22T07:59:05.795Z,150
2017-09-22T08:00:05.461Z,150
2017-09-22T08:01:06.092Z,155
2017-09-22T08:02:05.431Z,145
2017-09-22T08:03:05.418Z,140
2017-09-22T08:04:06.044Z,150
2017-09-22T08:05:05.743Z,160
2017-09-22T08:06:06.026Z,195
2017-09-22T08:07:05.690Z,240
2017-09-22T08:08:05.675Z,175
2017-09-22T08:09:05.345Z,160
2017-09-22T08:10:05.322Z,160
2017-09-22T08:11:05.312Z,160
2017-09-22T08:12:05.622Z,160
2017-09-22T08:13:05.930Z,165
2017-09-22T08:14:05.598Z,170
2017-09-22T08:15:05.584Z,175
2017-09-22T08:16:05.241Z,175
2017-09-22T08:17:05.565Z,175
2017-09-22T08:18:05.538Z,180
2017-09-22T08:19:06.174Z,180
2017-09-22T08:20:05.518Z,185
2017-09-22T08:21:05.512Z,190
2017-09-22T08:22:05.488Z,190
2017-09-22T08:23:06.133Z,195
2017-09-22T08:24:05.147Z,195
2017-09-22T08:25:06.095Z,190
2017-09-22T08:26:05.764Z,195
2017-09-22T08:27:05.751Z,195
2017-09-22T08:28:05.416Z,195
2017-09-22T08:29:05.423Z,195
2017-09-22T08:30:05.069Z,200
2017-09-22T08:31:05.385Z,200
2017-09-22T08:32:05.371Z,200
2017-09-22T08:33:05.042Z,200
2017-09-22T08:34:05.017Z,200
2017-09-22T08:35:05.650Z,200
2017-09-22T08:36:05.974Z,200
2017-09-22T08:37:05.624Z,200
2017-09-22T08:38:05.947Z,205
2017-09-22T08:39:05.609Z,205
2017-09-22T08:40:05.593Z,200
2017-09-22T08:41:05.581Z,205
2017-09-22T08:42:05.270Z,200
2017-09-22T08:43:05.554Z,205
2017-09-22T08:44:05.228Z,200
2017-09-22T08:45:05.861Z,195
2017-09-22T08:46:05.525Z,195
2017-09-22T08:47:05.248Z,190
2017-09-22T08:48:04.863Z,190
2017-09-22T08:49:04.895Z,190
2017-09-22T08:50:05.823Z,195
2017-09-22T08:51:05.476Z,200
2017-09-22T08:52:05.466Z,205
2017-09-22T08:53:05.484Z,205
2017-09-22T08:54:05.109Z,205
2017-09-22T08:55:05.101Z,205
2017-09-22T08:56:05.086Z,205
2017-09-22T08:57:04.778Z,205
2017-09-22T08:58:05.067Z,215
2017-09-22T08:59:05.382Z,210
2017-09-22T09:00:05.698Z,215
2017-09-22T09:01:05.036Z,215
2017-09-22T09:02:05.345Z,215
2017-09-22T09:03:05.018Z,225
2017-09-22T09:04:05.330Z,230
2017-09-22T09:05:05.318Z,235
2017-09-22T09:06:05.299Z,240
2017-09-22T09:07:05.608Z,250
2017-09-22T09:08:04.966Z,245
2017-09-22T09:09:05.265Z,255
2017-09-22T09:10:04.940Z,260
2017-09-22T09:11:04.612Z,255
2017-09-22T09:12:04.970Z,255
2017-09-22T09:13:04.580Z,255
2017-09-22T09:14:05.215Z,255
2017-09-22T09:15:04.560Z,260
2017-09-22T09:16:04.554Z,255
2017-09-22T09:17:04.537Z,255
2017-09-22T09:18:05.165Z,255
2017-09-22T09:19:05.167Z,265
2017-09-22T09:20:04.831Z,270
2017-09-22T09:21:05.132Z,270
2017-09-22T09:22:05.177Z,265
2017-09-22T09:23:04.799Z,260
2017-09-22T09:24:05.122Z,260
2017-09-22T09:25:04.793Z,255
2017-09-22T09:26:05.465Z,255
2017-09-22T09:27:04.767Z,255
2017-09-22T09:28:05.076Z,255
2017-09-22T09:29:05.067Z,255
2017-09-22T09:30:05.063Z,255
2017-09-22T09:31:04.723Z,260
2017-09-22T09:32:05.347Z,260
2017-09-22T09:33:05.111Z,260
2017-09-22T09:34:04.043Z,255
2017-09-22T09:35:04.688Z,260
2017-09-22T09:36:04.672Z,265
2017-09-22T09:37:04.348Z,270
2017-09-22T09:38:04.328Z,270
2017-09-22T09:39:04.978Z,270
2017-09-22T09:40:04.616Z,270
2017-09-22T09:41:04.289Z,265
2017-09-22T09:42:04.604Z,260
2017-09-22T09:43:04.600Z,260
2017-09-22T09:44:04.629Z,255
2017-09-22T09:45:04.584Z,245
2017-09-22T09:46:04.585Z,235
2017-09-22T09:47:04.234Z,230
2017-09-22T09:48:04.872Z,225
2017-09-22T09:49:04.538Z,220
2017-09-22T09:50:04.841Z,220
2017-09-22T09:51:04.850Z,225
2017-09-22T09:52:04.503Z,225
2017-09-22T09:53:04.390Z,220
2017-09-22T09:54:04.816Z,230
2017-09-22T09:55:04.213Z,240
2017-09-22T09:56:05.118Z,245
2017-09-22T09:57:04.136Z,255
2017-09-22T09:58:04.457Z,255
2017-09-22T09:59:04.446Z,255
2017-09-22T10:00:04.758Z,250
2017-09-22T10:01:04.423Z,255
2017-09-22T10:02:04.736Z,260
2017-09-22T10:03:04.727Z,265
2017-09-22T10:04:05.088Z,280
2017-09-22T10:05:04.390Z,295
2017-09-22T10:06:04.375Z,295
2017-09-22T10:07:04.689Z,290
2017-09-22T10:08:05.159Z,280
2017-09-22T10:09:04.665Z,270
2017-09-22T10:10:04.344Z,260
2017-09-22T10:11:05.037Z,255
2017-09-22T10:12:04.681Z,260
2017-09-22T10:13:04.665Z,260
2017-09-22T10:14:04.299Z,265
2017-09-22T10:15:04.932Z,270
2017-09-22T10:16:04.600Z,270
2017-09-22T10:17:03.957Z,270
2017-09-22T10:18:04.265Z,270
2017-09-22T10:19:04.311Z,280
2017-09-22T10:20:04.249Z,290
2017-09-22T10:21:04.561Z,300
2017-09-22T10:22:04.226Z,300
2017-09-22T10:23:04.369Z,310
2017-09-22T10:24:04.530Z,305
2017-09-22T10:25:04.521Z,295
2017-09-22T10:26:04.238Z,295
2017-09-22T10:27:04.833Z,295
2017-09-22T10:28:04.833Z,285
2017-09-22T10:29:04.807Z,275
2017-09-22T10:30:04.483Z,275
2017-09-22T10:31:04.153Z,300
2017-09-22T10:32:04.466Z,325
2017-09-22T10:33:04.130Z,295
2017-09-22T10:34:04.455Z,335
2017-09-22T10:35:03.794Z,315
2017-09-22T10:36:03.463Z,295
2017-09-22T10:37:04.423Z,295
2017-09-22T10:38:04.082Z,300
2017-09-22T10:39:03.780Z,310
2017-09-22T10:40:04.073Z,310
2017-09-22T10:41:03.741Z,320
2017-09-22T10:42:04.056Z,340
2017-09-22T10:43:04.047Z,355
2017-09-22T10:44:03.722Z,375
2017-09-22T10:45:04.037Z,550
2017-09-22T10:46:04.077Z,610
2017-09-22T10:47:04.023Z,575
2017-09-22T10:48:03.679Z,490
2017-09-22T10:49:04.316Z,435
2017-09-22T10:50:03.348Z,400
2017-09-22T10:51:03.985Z,430
2017-09-22T10:52:04.041Z,430
2017-09-22T10:53:03.966Z,440
2017-09-22T10:54:04.018Z,455
2017-09-22T10:55:03.952Z,445
2017-09-22T10:56:03.681Z,445
2017-09-22T10:57:03.673Z,440
2017-09-22T10:58:03.928Z,450
2017-09-22T10:59:03.928Z,435
2017-09-22T11:00:03.601Z,435
2017-09-22T11:01:03.693Z,405
2017-09-22T11:02:03.900Z,390
2017-09-22T11:03:04.222Z,370
2017-09-22T11:04:03.568Z,360
2017-09-22T11:05:03.875Z,355
2017-09-22T11:06:04.519Z,360
2017-09-22T11:07:04.524Z,365
2017-09-22T11:08:03.865Z,375
2017-09-22T11:09:03.541Z,390
2017-09-22T11:10:04.486Z,415
2017-09-22T11:11:04.170Z,430
2017-09-22T11:12:04.212Z,440
2017-09-22T11:13:03.506Z,445
2017-09-22T11:14:03.830Z,460
2017-09-22T11:15:03.869Z,460
2017-09-22T11:16:04.130Z,480
2017-09-22T11:17:03.801Z,480
2017-09-22T11:18:03.798Z,495
2017-09-22T11:19:04.111Z,495
2017-09-22T11:20:03.782Z,530
2017-09-22T11:21:03.773Z,525
2017-09-22T11:22:04.086Z,550
2017-09-22T11:23:04.411Z,565
2017-09-22T11:24:04.132Z,545
2017-09-22T11:25:03.759Z,560
2017-09-22T11:26:03.429Z,565
2017-09-22T11:27:04.060Z,590
2017-09-22T11:28:03.413Z,605
2017-09-22T11:29:03.739Z,565
2017-09-22T11:30:03.725Z,580
2017-09-22T11:31:03.768Z,575
2017-09-22T11:32:03.386Z,595
2017-09-22T11:33:03.744Z,625
2017-09-22T11:34:04.018Z,590
2017-09-22T11:35:03.743Z,550
2017-09-22T11:36:03.702Z,555
2017-09-22T11:37:04.020Z,555
2017-09-22T11:38:03.676Z,555
2017-09-22T11:39:03.999Z,555
2017-09-22T11:40:03.994Z,525
2017-09-22T11:41:04.310Z,520
2017-09-22T11:42:03.987Z,545
2017-09-22T11:43:03.391Z,525
2017-09-22T11:44:03.684Z,530
2017-09-22T11:45:03.336Z,555
2017-09-22T11:46:04.297Z,655
2017-09-22T11:47:03.965Z,700
2017-09-22T11:48:03.632Z,685
2017-09-22T11:49:03.951Z,665
2017-09-22T11:50:03.631Z,685
2017-09-22T11:51:03.950Z,580
2017-09-22T11:52:04.282Z,530
2017-09-22T11:53:03.835Z,495
2017-09-22T11:54:03.598Z,500
2017-09-22T11:55:03.289Z,470
2017-09-22T11:56:03.618Z,505
2017-09-22T11:57:03.608Z,685
2017-09-22T11:58:03.593Z,495
2017-09-22T11:59:03.939Z,580
2017-09-22T12:00:03.898Z,650
2017-09-22T12:01:02.938Z,505
2017-09-22T12:02:03.575Z,520
2017-09-22T12:03:03.578Z,550
2017-09-22T12:04:04.204Z,555
2017-09-22T12:05:03.571Z,720
2017-09-22T12:06:04.203Z,925
2017-09-22T12:07:03.869Z,885
2017-09-22T12:08:03.551Z,855
2017-09-22T12:09:04.186Z,1000
2017-09-22T12:10:03.543Z,960
2017-09-22T12:11:03.854Z,1430
2017-09-22T12:12:03.857Z,1310
2017-09-22T12:13:03.520Z,980
2017-09-22T12:14:03.841Z,805
2017-09-22T12:15:03.264Z,805
2017-09-22T12:16:03.517Z,1235
2017-09-22T12:17:03.513Z,1405
2017-09-22T12:18:03.833Z,850
2017-09-22T12:19:03.511Z,665
2017-09-22T12:20:03.828Z,555
2017-09-22T12:21:03.825Z,505
2017-09-22T12:22:04.164Z,590
2017-09-22T12:23:03.824Z,915
2017-09-22T12:24:03.503Z,875
2017-09-22T12:25:03.824Z,1055
2017-09-22T12:26:03.498Z,1215
2017-09-22T12:27:04.133Z,1035
2017-09-22T12:28:03.808Z,1060
2017-09-22T12:29:03.812Z,980
2017-09-22T12:30:03.823Z,1050
2017-09-22T12:31:03.808Z,1145
2017-09-22T12:32:03.493Z,1045
2017-09-22T12:33:03.813Z,835
2017-09-22T12:34:03.494Z,1110
2017-09-22T12:35:04.118Z,910
2017-09-22T12:36:03.479Z,965
2017-09-22T12:37:03.803Z,845
2017-09-22T12:38:03.798Z,580
2017-09-22T12:39:03.803Z,675
2017-09-22T12:40:03.807Z,530
2017-09-22T12:41:03.557Z,710
2017-09-22T12:42:03.500Z,630
2017-09-22T12:43:03.160Z,705
2017-09-22T12:44:03.161Z,690
2017-09-22T12:45:03.794Z,535
2017-09-22T12:46:03.478Z,450
2017-09-22T12:47:03.802Z,480
2017-09-22T12:48:03.466Z,550
2017-09-22T12:49:03.781Z,525
2017-09-22T12:50:03.466Z,515
2017-09-22T12:51:03.476Z,555
2017-09-22T12:52:03.465Z,595
2017-09-22T12:53:04.121Z,650
2017-09-22T12:54:04.121Z,660
2017-09-22T12:55:03.470Z,550
2017-09-22T12:56:03.776Z,505
2017-09-22T12:57:03.469Z,485
2017-09-22T12:58:03.778Z,440
2017-09-22T12:59:03.765Z,400
2017-09-22T13:00:03.765Z,355
2017-09-22T13:01:03.460Z,335
2017-09-22T13:02:03.778Z,320
2017-09-22T13:03:03.443Z,295
2017-09-22T13:04:04.133Z,285
2017-09-22T13:05:03.764Z,280
2017-09-22T13:06:03.113Z,280
2017-09-22T13:07:03.745Z,280
2017-09-22T13:08:04.063Z,280
2017-09-22T13:09:03.106Z,275
2017-09-22T13:10:03.096Z,275
2017-09-22T13:11:03.421Z,270
2017-09-22T13:12:03.735Z,265
2017-09-22T13:13:03.444Z,260
2017-09-22T13:14:03.726Z,260
2017-09-22T13:15:03.721Z,255
2017-09-22T13:16:03.071Z,250
2017-09-22T13:17:04.035Z,245
2017-09-22T13:18:03.381Z,240
2017-09-22T13:19:03.411Z,240
2017-09-22T13:20:03.385Z,250
2017-09-22T13:21:03.699Z,250
2017-09-22T13:22:03.375Z,260
2017-09-22T13:23:04.011Z,260
2017-09-22T13:24:03.041Z,265
2017-09-22T13:25:03.359Z,270
2017-09-22T13:26:02.703Z,270
2017-09-22T13:27:03.665Z,275
2017-09-22T13:28:02.688Z,280
2017-09-22T13:29:03.646Z,290
2017-09-22T13:30:03.005Z,290
2017-09-22T13:31:03.646Z,290
2017-09-22T13:32:02.681Z,295
2017-09-22T13:33:02.986Z,295
2017-09-22T13:34:03.301Z,295
2017-09-22T13:35:03.675Z,290
2017-09-22T13:36:03.288Z,285
2017-09-22T13:37:03.615Z,285
2017-09-22T13:38:03.611Z,285
2017-09-22T13:39:03.281Z,285
2017-09-22T13:40:03.283Z,285
2017-09-22T13:41:03.267Z,290
2017-09-22T13:42:03.273Z,280
2017-09-22T13:43:02.929Z,285
2017-09-22T13:44:02.920Z,295
2017-09-22T13:45:03.244Z,300
2017-09-22T13:46:02.912Z,310
2017-09-22T13:47:03.552Z,325
2017-09-22T13:48:03.550Z,355
2017-09-22T13:49:02.890Z,345
2017-09-22T13:50:03.527Z,345
2017-09-22T13:51:03.524Z,360
2017-09-22T13:52:03.204Z,350
2017-09-22T13:53:03.539Z,390
2017-09-22T13:54:03.193Z,535
2017-09-22T13:55:03.233Z,605
2017-09-22T13:56:03.492Z,740
2017-09-22T13:57:02.526Z,725
2017-09-22T13:58:03.806Z,545
2017-09-22T13:59:02.842Z,565
2017-09-22T14:00:03.178Z,475
2017-09-22T14:01:03.793Z,370
2017-09-22T14:02:03.467Z,335
2017-09-22T14:03:02.493Z,310
2017-09-22T14:04:03.461Z,280
2017-09-22T14:05:03.451Z,255
2017-09-22T14:06:03.161Z,260
2017-09-22T14:07:03.142Z,265
2017-09-22T14:08:03.117Z,265
2017-09-22T14:09:03.426Z,260
2017-09-22T14:10:03.755Z,275
2017-09-22T14:11:03.129Z,310
2017-09-22T14:12:02.774Z,235